Time;durP1;ratioP1;P1;durP2;ratioP2;P2;SDS_P1;SDS_P2;PMS_P1;PMS_P2;Temp;Humidity;BMP_temperature;BMP_pressure;BME280_temperature;BME280_humidity;BME280_pressure;Samples;Min_cycle;Max_cycle;Signal;HPM_P1;HPM_P2
2022/09/02 00:00:49;;;;;;;1.30;1.10;;;19.80;37.60;;;;;;5051332;28;20785;-73
2022/09/02 00:03:15;;;;;;;1.30;1.10;;;19.90;38.80;;;;;;5032712;28;20408;-73
2022/09/02 00:05:41;;;;;;;1.30;1.00;;;19.70;38.80;;;;;;5034635;28;20463;-73
2022/09/02 00:08:09;;;;;;;1.30;1.00;;;19.70;37.60;;;;;;5052154;28;20918;-73
2022/09/02 00:10:37;;;;;;;1.30;1.20;;;19.70;38.50;;;;;;5046818;28;20181;-73
2022/09/02 00:13:04;;;;;;;1.30;1.10;;;19.70;37.40;;;;;;5048971;28;20415;-73
2022/09/02 00:15:29;;;;;;;1.30;1.30;;;19.70;38.20;;;;;;5051452;28;20500;-73
2022/09/02 00:17:56;;;;;;;1.30;1.20;;;19.70;36.30;;;;;;5052165;28;20451;-73
2022/09/02 00:20:22;;;;;;;1.30;1.20;;;19.60;38.00;;;;;;5051294;28;20422;-73
2022/09/02 00:22:48;;;;;;;1.30;1.20;;;19.50;38.50;;;;;;5045300;28;20473;-73
2022/09/02 00:25:14;;;;;;;1.30;1.20;;;19.40;39.10;;;;;;5032759;28;20212;-73
2022/09/02 00:27:39;;;;;;;1.30;1.20;;;19.30;39.10;;;;;;5051161;28;20434;-73
2022/09/02 00:30:06;;;;;;;1.30;1.10;;;19.00;39.50;;;;;;5051612;28;20449;-73
2022/09/02 00:32:31;;;;;;;1.30;1.10;;;19.10;40.40;;;;;;5052224;28;20479;-73
2022/09/02 00:34:57;;;;;;;1.30;1.10;;;19.20;40.40;;;;;;5051730;28;20497;-73
2022/09/02 00:37:25;;;;;;;1.30;1.17;;;18.90;38.60;;;;;;5048401;28;20176;-73
2022/09/02 00:39:52;;;;;;;1.30;1.10;;;19.10;40.80;;;;;;5047401;28;20415;-73
2022/09/02 00:42:22;;;;;;;1.30;1.23;;;19.40;38.40;;;;;;5051507;28;20407;-73
2022/09/02 00:44:48;;;;;;;1.30;1.20;;;19.60;38.50;;;;;;5055386;28;20795;-73
2022/09/02 00:47:14;;;;;;;1.30;1.20;;;19.60;39.70;;;;;;5054745;28;20953;-73
2022/09/02 00:49:44;;;;;;;1.30;1.27;;;19.50;38.50;;;;;;5046944;28;20433;-73
2022/09/02 00:52:19;;;;;;;1.30;1.20;;;19.60;37.30;;;;;;5052593;28;20172;-73
2022/09/02 00:54:50;;;;;;;1.30;1.30;;;19.60;37.20;;;;;;5037411;28;20403;-73
2022/09/02 00:57:20;;;;;;;1.30;1.10;;;19.60;37.90;;;;;;5047850;28;20469;-73
2022/09/02 01:00:01;;;;;;;1.30;1.00;;;19.30;39.50;;;;;;5045841;28;20411;-73
2022/09/02 01:02:27;;;;;;;1.30;1.00;;;19.20;39.60;;;;;;5051311;28;20420;-73
2022/09/02 01:04:57;;;;;;;1.30;1.10;;;19.00;40.70;;;;;;5051063;28;20464;-74
2022/09/02 01:07:26;;;;;;;1.30;1.10;;;18.90;41.50;;;;;;5048725;28;20792;-73
2022/09/02 01:09:54;;;;;;;1.30;1.10;;;19.10;39.80;;;;;;5032660;28;20410;-73
2022/09/02 01:12:20;;;;;;;1.30;1.20;;;19.30;38.50;;;;;;5031271;28;20416;-73
2022/09/02 01:14:46;;;;;;;1.30;1.10;;;19.20;39.90;;;;;;5031526;28;20408;-73
2022/09/02 01:17:15;;;;;;;1.30;1.10;;;19.00;41.40;;;;;;5050983;28;20872;-73
2022/09/02 01:19:46;;;;;;;1.30;1.10;;;18.80;40.50;;;;;;5052145;28;20166;-73
2022/09/02 01:22:21;;;;;;;1.30;1.20;;;18.70;41.60;;;;;;5031247;28;20462;-73
2022/09/02 01:24:47;;;;;;;1.30;1.20;;;18.90;41.40;;;;;;5047291;28;20411;-73
2022/09/02 01:27:19;;;;;;;1.30;1.10;;;18.80;40.50;;;;;;5058192;28;20953;-73
2022/09/02 01:29:49;;;;;;;1.30;1.10;;;18.90;40.70;;;;;;5051887;28;20410;-73
2022/09/02 01:32:15;;;;;;;1.30;1.10;;;18.80;41.30;;;;;;5050911;28;20399;-73
2022/09/02 01:34:41;;;;;;;1.30;1.20;;;18.80;40.80;;;;;;5043092;28;20872;-73
2022/09/02 01:37:07;;;;;;;1.30;1.10;;;18.70;42.30;;;;;;5058371;28;20211;-73
2022/09/02 01:39:33;;;;;;;1.30;1.10;;;18.60;41.30;;;;;;5045825;28;20515;-73
2022/09/02 01:41:59;;;;;;;1.30;1.00;;;18.60;40.40;;;;;;5047300;28;20413;-73
2022/09/02 01:44:26;;;;;;;1.30;1.10;;;18.40;41.90;;;;;;5051675;28;20533;-73
2022/09/02 01:46:52;;;;;;;1.30;1.10;;;18.60;41.40;;;;;;5057848;28;20857;-73
2022/09/02 01:49:18;;;;;;;1.30;1.10;;;18.70;40.90;;;;;;5047157;28;20426;-73
2022/09/02 01:51:43;;;;;;;1.30;1.00;;;18.40;42.00;;;;;;5055616;28;20795;-73
2022/09/02 01:54:09;;;;;;;1.30;1.10;;;18.30;42.10;;;;;;5051199;28;20217;-73
2022/09/02 01:56:35;;;;;;;1.30;1.10;;;18.40;41.70;;;;;;5054478;28;20306;-73
2022/09/02 01:59:01;;;;;;;1.30;1.30;;;18.20;41.80;;;;;;5051734;28;20263;-73
2022/09/02 02:01:27;;;;;;;1.30;1.13;;;18.20;42.60;;;;;;5049337;28;20235;-73
2022/09/02 02:03:53;;;;;;;1.30;1.20;;;18.30;41.30;;;;;;5051192;28;20403;-73
2022/09/02 02:06:19;;;;;;;1.30;1.20;;;18.20;41.80;;;;;;5057596;28;20206;-73
2022/09/02 02:08:45;;;;;;;1.30;1.20;;;18.10;42.80;;;;;;5036995;28;20211;-73
2022/09/02 02:11:11;;;;;;;1.30;1.10;;;18.30;41.30;;;;;;5055776;28;20461;-73
2022/09/02 02:13:37;;;;;;;1.30;1.10;;;18.30;41.70;;;;;;5054783;28;20406;-73
2022/09/02 02:16:03;;;;;;;1.30;1.10;;;18.20;41.90;;;;;;5053256;28;20807;-74
2022/09/02 02:18:29;;;;;;;1.30;1.10;;;18.10;43.00;;;;;;5046947;28;20414;-73
2022/09/02 02:20:55;;;;;;;1.30;1.00;;;18.10;42.40;;;;;;5053385;28;20448;-73
2022/09/02 02:23:23;;;;;;;1.30;1.00;;;18.00;41.80;;;;;;5050581;28;20430;-73
2022/09/02 02:25:49;;;;;;;1.30;1.20;;;18.20;40.60;;;;;;5046324;28;20538;-74
2022/09/02 02:28:15;;;;;;;1.30;1.20;;;18.10;41.90;;;;;;5068596;28;20564;-73
2022/09/02 02:30:40;;;;;;;1.30;1.20;;;18.20;40.80;;;;;;5044751;28;20589;-73
2022/09/02 02:33:06;;;;;;;1.30;1.20;;;18.00;42.70;;;;;;5045583;28;20176;-73
2022/09/02 02:35:31;;;;;;;1.30;1.17;;;18.10;41.60;;;;;;5054375;28;20200;-73
2022/09/02 02:37:57;;;;;;;1.30;1.10;;;18.10;41.50;;;;;;5059884;28;20172;-73
2022/09/02 02:40:24;;;;;;;1.30;1.10;;;17.90;42.80;;;;;;5046421;28;20582;-73
2022/09/02 02:42:52;;;;;;;1.30;1.10;;;18.10;43.00;;;;;;5053023;28;20172;-74
2022/09/02 02:45:18;;;;;;;1.30;1.00;;;18.00;41.70;;;;;;5045622;28;20434;-73
2022/09/02 02:47:46;;;;;;;1.30;1.20;;;18.00;41.30;;;;;;5053338;28;20476;-73
2022/09/02 02:50:14;;;;;;;1.30;1.10;;;17.90;42.30;;;;;;5051518;28;20433;-73
2022/09/02 02:52:40;;;;;;;1.30;1.00;;;18.00;42.10;;;;;;5053727;28;20403;-73
2022/09/02 02:55:08;;;;;;;1.30;1.10;;;18.10;41.10;;;;;;5053891;28;20505;-74
2022/09/02 02:57:37;;;;;;;1.30;1.10;;;18.10;42.20;;;;;;5052035;28;20525;-74
2022/09/02 03:00:14;;;;;;;1.30;1.10;;;18.30;39.30;;;;;;5048811;28;20426;-74
2022/09/02 03:02:40;;;;;;;1.30;1.10;;;18.20;36.60;;;;;;5053164;28;20422;-73
2022/09/02 03:05:09;;;;;;;1.30;1.10;;;18.40;37.70;;;;;;5045321;28;20438;-74
2022/09/02 03:07:34;;;;;;;1.30;1.10;;;18.50;38.10;;;;;;5054369;28;20210;-74
2022/09/02 03:10:01;;;;;;;1.30;1.17;;;18.70;36.30;;;;;;5055763;28;20427;-73
2022/09/02 03:12:27;;;;;;;1.30;1.10;;;18.70;37.00;;;;;;5044321;28;20264;-74
2022/09/02 03:14:53;;;;;;;1.30;1.00;;;18.70;37.20;;;;;;5045373;28;20880;-74
2022/09/02 03:17:18;;;;;;;1.30;1.10;;;18.70;36.50;;;;;;5056521;28;20208;-74
2022/09/02 03:19:44;;;;;;;1.30;1.00;;;18.60;36.60;;;;;;5049601;28;20234;-73
2022/09/02 03:22:10;;;;;;;1.30;1.10;;;18.80;35.90;;;;;;5043950;28;20192;-73
2022/09/02 03:24:37;;;;;;;1.30;1.10;;;18.90;36.20;;;;;;5052345;28;20176;-74
2022/09/02 03:27:03;;;;;;;1.30;1.20;;;18.80;36.50;;;;;;5053324;28;20192;-74
2022/09/02 03:29:29;;;;;;;1.30;1.10;;;18.80;36.30;;;;;;5054776;28;20523;-74
2022/09/02 03:31:55;;;;;;;1.30;1.20;;;18.90;36.40;;;;;;5045886;28;20456;-74
2022/09/02 03:34:20;;;;;;;1.30;1.10;;;18.80;35.80;;;;;;5033365;28;20415;-74
2022/09/02 03:36:46;;;;;;;1.30;1.20;;;18.70;36.60;;;;;;5033722;28;20303;-74
2022/09/02 03:39:12;;;;;;;1.30;1.10;;;18.70;36.50;;;;;;5034542;28;20165;-74
2022/09/02 03:41:41;;;;;;;1.30;1.10;;;18.80;34.90;;;;;;5047397;28;20182;-74
2022/09/02 03:44:07;;;;;;;1.30;1.20;;;18.90;36.60;;;;;;5050251;28;20403;-73
2022/09/02 03:46:34;;;;;;;1.30;1.10;;;18.80;36.70;;;;;;5053550;28;20572;-73
2022/09/02 03:49:00;;;;;;;1.30;1.20;;;18.80;37.10;;;;;;5052784;28;20774;-74
2022/09/02 03:51:27;;;;;;;1.30;1.10;;;18.80;36.30;;;;;;5059559;28;20426;-74
2022/09/02 03:53:53;;;;;;;1.30;1.10;;;18.50;33.60;;;;;;5047155;28;20952;-74
2022/09/02 03:56:19;;;;;;;1.30;1.10;;;18.80;35.00;;;;;;5052425;28;20520;-74
2022/09/02 03:58:47;;;;;;;1.30;1.10;;;18.90;35.20;;;;;;5056508;28;20458;-74
2022/09/02 04:01:19;;;;;;;1.30;1.10;;;19.00;35.00;;;;;;5057286;28;20422;-74
2022/09/02 04:03:45;;;;;;;1.30;1.00;;;18.90;34.90;;;;;;5047195;28;20484;-74
2022/09/02 04:06:13;;;;;;;1.30;1.10;;;19.10;34.60;;;;;;5056985;28;20590;-74
2022/09/02 04:08:40;;;;;;;1.30;1.10;;;19.10;36.00;;;;;;5045659;28;20533;-75
2022/09/02 04:11:07;;;;;;;1.30;1.10;;;19.10;32.40;;;;;;5044006;28;20411;-74
2022/09/02 04:13:34;;;;;;;1.30;1.07;;;19.00;34.90;;;;;;5052216;28;20434;-73
2022/09/02 04:16:09;;;;;;;1.30;1.10;;;19.00;35.70;;;;;;5052901;28;20459;-74
2022/09/02 04:18:35;;;;;;;1.30;1.20;;;19.00;35.30;;;;;;5051604;28;20928;-74
2022/09/02 04:21:00;;;;;;;1.30;1.20;;;19.10;34.60;;;;;;5035774;28;20469;-74
2022/09/02 04:23:27;;;;;;;1.30;1.10;;;19.10;35.60;;;;;;5040712;28;20541;-73
2022/09/02 04:25:53;;;;;;;1.30;1.20;;;19.20;35.00;;;;;;5052371;28;20190;-75
2022/09/02 04:28:18;;;;;;;1.30;1.17;;;19.20;36.00;;;;;;5059162;28;20983;-73
2022/09/02 04:30:44;;;;;;;1.30;1.10;;;19.20;35.10;;;;;;5048532;28;20182;-73
2022/09/02 04:33:10;;;;;;;1.30;1.20;;;19.10;35.50;;;;;;5049430;28;20589;-74
2022/09/02 04:35:40;;;;;;;1.30;1.10;;;19.30;35.30;;;;;;5051899;28;20246;-73
2022/09/02 04:38:06;;;;;;;1.30;1.10;;;19.00;35.40;;;;;;5050997;28;20517;-73
2022/09/02 04:40:31;;;;;;;1.30;1.17;;;18.90;34.40;;;;;;5043913;28;20836;-74
2022/09/02 04:42:57;;;;;;;1.30;1.10;;;18.70;34.10;;;;;;5051010;28;20604;-74
2022/09/02 04:45:23;;;;;;;1.30;1.10;;;18.70;34.90;;;;;;5045971;28;20260;-74
2022/09/02 04:47:48;;;;;;;1.30;1.10;;;18.90;32.90;;;;;;5060614;28;20175;-73
2022/09/02 04:50:14;;;;;;;1.30;1.10;;;18.90;33.70;;;;;;5047639;28;20179;-74
2022/09/02 04:52:40;;;;;;;1.30;1.20;;;19.10;34.80;;;;;;5043566;28;20671;-75
2022/09/02 04:55:06;;;;;;;1.30;1.10;;;19.30;35.30;;;;;;5050638;28;20572;-75
2022/09/02 04:57:32;;;;;;;1.30;1.20;;;19.30;35.70;;;;;;5044147;28;20169;-74
2022/09/02 04:59:58;;;;;;;1.30;1.20;;;19.40;35.40;;;;;;5052033;28;20497;-74
2022/09/02 05:02:24;;;;;;;1.30;1.10;;;19.40;34.70;;;;;;5049330;28;20509;-75
2022/09/02 05:04:51;;;;;;;1.30;1.13;;;19.10;32.70;;;;;;5046303;28;20459;-75
2022/09/02 05:07:16;;;;;;;1.30;1.20;;;19.00;35.70;;;;;;5044844;28;20168;-75
2022/09/02 05:09:43;;;;;;;1.30;1.10;;;18.90;34.80;;;;;;5052118;28;20418;-75
2022/09/02 05:12:09;;;;;;;1.30;1.20;;;19.00;33.00;;;;;;5050719;28;20229;-74
2022/09/02 05:14:35;;;;;;;1.30;1.20;;;19.30;34.20;;;;;;5053919;28;20468;-73
2022/09/02 05:17:01;;;;;;;1.30;1.10;;;19.50;33.90;;;;;;5031237;28;20543;-73
2022/09/02 05:19:27;;;;;;;1.20;1.00;;;19.50;34.50;;;;;;5042971;28;20595;-75
2022/09/02 05:21:57;;;;;;;1.30;1.10;;;19.30;33.90;;;;;;5051290;28;20357;-74
2022/09/02 05:24:24;;;;;;;1.30;1.20;;;19.30;35.50;;;;;;5046716;28;20204;-73
2022/09/02 05:26:50;;;;;;;1.30;1.20;;;19.50;35.70;;;;;;5048774;28;20445;-74
2022/09/02 05:29:19;;;;;;;1.30;1.10;;;19.70;34.90;;;;;;5051400;28;20445;-74
2022/09/02 05:31:45;;;;;;;1.30;1.23;;;19.60;34.80;;;;;;5041575;28;20462;-75
2022/09/02 05:34:11;;;;;;;1.30;1.17;;;19.70;35.70;;;;;;5047918;28;20440;-74
2022/09/02 05:36:36;;;;;;;1.30;1.20;;;19.80;33.00;;;;;;5043017;28;20454;-74
2022/09/02 05:39:04;;;;;;;1.30;1.30;;;19.60;34.70;;;;;;5048491;28;20651;-75
2022/09/02 05:41:30;;;;;;;1.30;1.10;;;19.70;33.40;;;;;;5031281;28;20185;-73
2022/09/02 05:44:01;;;;;;;1.30;1.20;;;19.70;35.40;;;;;;5048270;28;20430;-74
2022/09/02 05:46:27;;;;;;;1.30;1.10;;;19.80;34.70;;;;;;5062851;28;20506;-74
2022/09/02 05:49:16;;;;;;;1.30;1.20;;;19.60;33.60;;;;;;5061019;28;20831;-74
2022/09/02 05:51:47;;;;;;;1.30;1.20;;;19.20;36.10;;;;;;5056891;28;20437;-73
2022/09/02 05:54:16;;;;;;;1.30;1.20;;;19.50;34.60;;;;;;5051754;28;20433;-73
2022/09/02 05:56:44;;;;;;;1.30;1.30;;;19.00;35.80;;;;;;5048595;28;20473;-74
2022/09/02 05:59:10;;;;;;;1.30;1.20;;;18.50;38.60;;;;;;5053753;28;21273;-74
2022/09/02 06:01:36;;;;;;;1.30;1.10;;;18.90;38.40;;;;;;5047011;28;20522;-75
2022/09/02 06:04:04;;;;;;;1.30;1.30;;;19.10;38.50;;;;;;5047151;28;20196;-74
2022/09/02 06:06:31;;;;;;;1.30;1.20;;;18.70;38.90;;;;;;5051768;28;20458;-75
2022/09/02 06:08:58;;;;;;;1.30;1.00;;;18.90;36.80;;;;;;5055683;28;20779;-74
2022/09/02 06:11:24;;;;;;;1.30;1.10;;;19.40;36.40;;;;;;5050427;28;20428;-74
2022/09/02 06:13:54;;;;;;;1.30;1.10;;;19.70;35.90;;;;;;5039717;28;20427;-75
2022/09/02 06:16:20;;;;;;;1.30;1.20;;;19.80;35.60;;;;;;5043588;28;20528;-75
2022/09/02 06:18:47;;;;;;;1.30;1.10;;;19.80;33.80;;;;;;5051388;28;20431;-74
2022/09/02 06:21:14;;;;;;;1.30;1.10;;;19.60;34.50;;;;;;5060653;28;20436;-74
2022/09/02 06:23:40;;;;;;;1.30;1.10;;;19.90;34.00;;;;;;5056621;28;20418;-75
2022/09/02 06:26:09;;;;;;;1.30;1.20;;;20.10;34.00;;;;;;5053234;28;20457;-74
2022/09/02 06:28:34;;;;;;;1.30;1.20;;;19.90;32.90;;;;;;5053460;28;20438;-74
2022/09/02 06:31:09;;;;;;;1.30;1.13;;;20.20;35.70;;;;;;5056411;28;20454;-73
2022/09/02 06:33:35;;;;;;;1.30;1.20;;;19.10;36.20;;;;;;5048923;28;20265;-73
2022/09/02 06:36:00;;;;;;;1.30;1.30;;;18.30;39.30;;;;;;5061962;28;20590;-73
2022/09/02 06:38:26;;;;;;;1.30;1.30;;;18.70;39.80;;;;;;5046801;28;20183;-74
2022/09/02 06:40:54;;;;;;;1.30;1.20;;;19.20;37.60;;;;;;5055447;28;20173;-73
2022/09/02 06:43:20;;;;;;;1.30;1.20;;;19.00;36.70;;;;;;5061880;28;20238;-73
2022/09/02 06:45:45;;;;;;;1.30;1.30;;;18.90;38.70;;;;;;5052781;28;20454;-74
2022/09/02 06:48:12;;;;;;;1.30;1.30;;;19.50;37.10;;;;;;5056038;28;20439;-77
2022/09/02 06:50:42;;;;;;;1.30;1.20;;;19.80;36.00;;;;;;5053335;28;20266;-73
2022/09/02 06:53:10;;;;;;;1.30;1.20;;;19.80;35.30;;;;;;5055880;28;20930;-73
2022/09/02 06:55:37;;;;;;;1.30;1.20;;;19.30;36.50;;;;;;5054713;28;20572;-74
2022/09/02 06:58:03;;;;;;;1.30;1.20;;;18.90;37.60;;;;;;5057909;28;21055;-74
2022/09/02 07:00:30;;;;;;;1.30;1.07;;;18.70;38.40;;;;;;5052245;28;20547;-74
2022/09/02 07:06:01;;;;;;;1.30;1.20;;;19.50;36.50;;;;;;5034059;28;20570;-72
2022/09/02 07:08:27;;;;;;;1.30;1.20;;;19.90;34.80;;;;;;5056080;28;20457;-74
2022/09/02 07:10:53;;;;;;;1.30;1.10;;;19.70;35.50;;;;;;5052412;28;20966;-75
2022/09/02 07:13:19;;;;;;;1.30;1.10;;;19.90;35.70;;;;;;5053634;28;20421;-73
2022/09/02 07:15:45;;;;;;;1.30;1.10;;;20.20;33.40;;;;;;5052986;28;20258;-73
2022/09/02 07:18:10;;;;;;;1.30;1.10;;;20.60;33.80;;;;;;5056471;28;20177;-74
2022/09/02 07:20:36;;;;;;;1.30;1.20;;;20.70;33.20;;;;;;5059325;28;20273;-72
2022/09/02 07:23:03;;;;;;;1.30;1.23;;;20.90;32.40;;;;;;5056458;28;20164;-73
2022/09/02 07:25:29;;;;;;;1.30;1.20;;;21.20;33.20;;;;;;5044073;28;20502;-74
2022/09/02 07:27:55;;;;;;;1.30;1.10;;;21.30;33.40;;;;;;5051789;28;20431;-74
2022/09/02 07:30:21;;;;;;;1.30;1.10;;;20.70;33.60;;;;;;5051711;28;20194;-74
2022/09/02 07:32:47;;;;;;;1.30;1.20;;;20.90;33.10;;;;;;5052859;28;20464;-74
2022/09/02 07:35:12;;;;;;;1.30;1.27;;;21.10;34.50;;;;;;5047924;28;20491;-73
2022/09/02 07:37:38;;;;;;;1.30;1.30;;;21.40;33.50;;;;;;5055612;28;20198;-74
2022/09/02 07:40:06;;;;;;;1.30;1.30;;;21.30;33.10;;;;;;5056665;28;20172;-74
2022/09/02 07:42:32;;;;;;;1.30;1.20;;;21.50;33.10;;;;;;5053373;28;20179;-74
2022/09/02 07:44:58;;;;;;;1.30;1.20;;;21.50;33.90;;;;;;5051251;28;20774;-74
2022/09/02 07:47:23;;;;;;;1.30;1.20;;;21.70;33.40;;;;;;5058232;28;20182;-74
2022/09/02 07:49:49;;;;;;;1.30;1.20;;;21.70;32.10;;;;;;5060501;28;20258;-74
2022/09/02 07:52:15;;;;;;;1.30;1.20;;;21.60;32.20;;;;;;5055112;28;20282;-74
2022/09/02 07:54:41;;;;;;;1.30;1.20;;;21.60;31.60;;;;;;5048918;28;20176;-73
2022/09/02 07:57:07;;;;;;;1.30;1.20;;;21.80;31.90;;;;;;5051278;28;20973;-74
2022/09/02 07:59:34;;;;;;;1.30;1.20;;;21.80;31.70;;;;;;5049649;28;20428;-73
2022/09/02 08:02:00;;;;;;;1.30;1.20;;;21.80;31.60;;;;;;5043159;28;20175;-74
2022/09/02 08:04:25;;;;;;;1.30;1.13;;;21.80;32.30;;;;;;5059127;28;20880;-74
2022/09/02 08:06:53;;;;;;;1.30;1.30;;;21.80;31.30;;;;;;5051371;28;20446;-73
2022/09/02 08:09:20;;;;;;;1.30;1.20;;;21.90;32.80;;;;;;5057093;28;20730;-74
2022/09/02 08:11:48;;;;;;;1.30;1.20;;;21.70;32.60;;;;;;5055410;28;20432;-74
2022/09/02 08:14:17;;;;;;;1.30;1.10;;;21.50;32.20;;;;;;5058712;28;20473;-74
2022/09/02 08:16:44;;;;;;;1.30;1.20;;;21.60;31.70;;;;;;5050290;28;20534;-75
2022/09/02 08:19:10;;;;;;;1.30;1.10;;;21.70;32.30;;;;;;5051671;28;20421;-74
2022/09/02 08:21:36;;;;;;;1.30;1.10;;;22.00;33.10;;;;;;5049917;28;20514;-74
2022/09/02 08:24:02;;;;;;;1.30;1.23;;;21.90;31.70;;;;;;5050894;28;20508;-74
2022/09/02 08:26:28;;;;;;;1.30;1.17;;;21.60;32.30;;;;;;5046407;28;20294;-74
2022/09/02 08:28:54;;;;;;;1.30;1.20;;;21.10;32.80;;;;;;5043779;28;20848;-75
2022/09/02 08:31:20;;;;;;;1.30;1.20;;;21.00;32.90;;;;;;5051219;28;20192;-74
2022/09/02 08:33:46;;;;;;;1.30;1.20;;;21.60;31.20;;;;;;5051776;28;20509;-74
2022/09/02 08:36:13;;;;;;;1.30;1.13;;;22.00;29.00;;;;;;5052123;28;20532;-74
2022/09/02 08:38:41;;;;;;;1.30;1.20;;;22.50;29.00;;;;;;5052228;28;20172;-75
2022/09/02 08:41:25;;;;;;;1.30;1.10;;;22.50;27.80;;;;;;5051590;28;20412;-75
2022/09/02 08:43:54;;;;;;;1.27;1.20;;;22.50;28.50;;;;;;5051666;28;20446;-74
2022/09/02 08:46:24;;;;;;;1.30;1.10;;;22.10;26.70;;;;;;5051550;28;20514;-74
2022/09/02 08:48:56;;;;;;;1.30;1.20;;;22.00;28.10;;;;;;5052049;28;20389;-73
2022/09/02 08:51:50;;;;;;;1.30;1.30;;;21.80;27.30;;;;;;5051542;28;20416;-75
2022/09/02 08:54:24;;;;;;;1.20;1.10;;;22.10;27.20;;;;;;5050449;28;20424;-75
2022/09/02 08:56:50;;;;;;;1.30;1.23;;;22.40;26.40;;;;;;5051090;28;20467;-74
2022/09/02 08:59:19;;;;;;;1.23;1.10;;;22.60;26.40;;;;;;5051604;28;20471;-74
2022/09/02 09:01:54;;;;;;;1.30;1.20;;;22.60;27.00;;;;;;5051215;28;20766;-74
2022/09/02 09:04:29;;;;;;;1.30;1.27;;;22.70;26.80;;;;;;5051399;28;20403;-74
2022/09/02 09:07:16;;;;;;;1.30;1.30;;;22.60;26.20;;;;;;5051243;28;21013;-74
2022/09/02 09:09:50;;;;;;;1.27;1.20;;;22.60;26.10;;;;;;5051779;28;20406;-75
2022/09/02 09:12:40;;;;;;;1.30;1.10;;;23.00;25.90;;;;;;5049449;28;20424;-74
2022/09/02 09:15:35;;;;;;;1.30;1.20;;;23.40;25.60;;;;;;5051388;28;20409;-74
2022/09/02 09:18:06;;;;;;;1.20;1.20;;;26.30;26.60;;;;;;5051261;28;20444;-74
2022/09/02 09:20:36;;;;;;;1.30;1.30;;;23.70;25.80;;;;;;5050845;28;20390;-75
2022/09/02 09:23:14;;;;;;;1.30;1.20;;;23.80;25.80;;;;;;5050703;28;20766;-74
2022/09/02 09:25:40;;;;;;;1.30;1.10;;;23.90;25.40;;;;;;5051153;28;20410;-74
2022/09/02 09:28:06;;;;;;;1.30;1.13;;;23.80;25.20;;;;;;5051177;28;20969;-74
2022/09/02 09:30:32;;;;;;;1.23;1.17;;;23.60;25.60;;;;;;5051444;28;20406;-74
2022/09/02 09:32:59;;;;;;;1.23;1.10;;;23.90;24.80;;;;;;5050862;28;20780;-74
2022/09/02 09:35:26;;;;;;;1.30;1.30;;;24.00;25.70;;;;;;5051346;28;20198;-74
2022/09/02 09:37:54;;;;;;;1.23;1.20;;;23.90;25.50;;;;;;5051522;28;20412;-74
2022/09/02 09:40:19;;;;;;;1.23;1.20;;;24.10;25.60;;;;;;5050957;28;20518;-74
2022/09/02 09:42:55;;;;;;;1.27;1.20;;;24.00;24.90;;;;;;5050609;28;20483;-74
2022/09/02 09:45:21;;;;;;;1.30;1.10;;;23.80;24.50;;;;;;5051164;28;20189;-75
2022/09/02 09:48:17;;;;;;;1.20;1.10;;;24.00;25.20;;;;;;5051351;28;20760;-74
2022/09/02 09:51:07;;;;;;;1.30;1.20;;;24.10;25.30;;;;;;5050697;28;20425;-73
2022/09/02 09:53:34;;;;;;;1.23;1.20;;;24.10;25.10;;;;;;5050641;28;20416;-74
2022/09/02 09:56:14;;;;;;;1.30;1.20;;;24.30;25.80;;;;;;5049250;28;20469;-74
2022/09/02 09:58:40;;;;;;;1.23;1.20;;;24.60;24.70;;;;;;5051127;28;20402;-73
2022/09/02 10:01:27;;;;;;;1.23;1.20;;;24.80;24.80;;;;;;5050550;28;20795;-75
2022/09/02 10:04:33;;;;;;;1.23;1.10;;;24.90;25.30;;;;;;5050844;28;20161;-74
2022/09/02 10:06:59;;;;;;;1.20;1.10;;;25.20;24.00;;;;;;5050861;28;20420;-74
2022/09/02 10:09:32;;;;;;;1.20;1.10;;;24.90;23.60;;;;;;5051066;28;20401;-74
2022/09/02 10:12:06;;;;;;;1.30;1.27;;;24.90;24.10;;;;;;5050264;28;20186;-74
2022/09/02 10:14:47;;;;;;;1.30;1.30;;;25.10;24.40;;;;;;5050899;28;20386;-74
2022/09/02 10:17:46;;;;;;;1.30;1.20;;;25.30;23.00;;;;;;5050844;28;20448;-75
2022/09/02 10:20:23;;;;;;;1.20;1.20;;;25.30;23.80;;;;;;5051031;28;20480;-74
2022/09/02 10:23:10;;;;;;;1.20;1.20;;;25.20;23.50;;;;;;5050042;28;20471;-74
2022/09/02 10:26:16;;;;;;;1.20;1.10;;;25.60;24.60;;;;;;5050444;28;20421;-74
2022/09/02 10:29:01;;;;;;;1.23;1.20;;;25.90;23.30;;;;;;5051062;28;20424;-75
2022/09/02 10:31:55;;;;;;;1.20;1.10;;;26.10;22.60;;;;;;5051216;28;20409;-74
2022/09/02 10:34:29;;;;;;;1.20;1.20;;;26.10;23.10;;;;;;5035326;28;20783;-74
2022/09/02 10:37:09;;;;;;;1.20;1.10;;;26.10;22.70;;;;;;5034764;28;20970;-75
2022/09/02 10:40:09;;;;;;;1.20;1.20;;;26.40;21.50;;;;;;5034850;28;20403;-74
2022/09/02 10:42:44;;;;;;;1.30;1.20;;;26.60;22.40;;;;;;5036493;28;20902;-73
2022/09/02 10:45:34;;;;;;;1.30;1.20;;;26.70;23.00;;;;;;5054029;28;20415;-75
2022/09/02 10:48:30;;;;;;;1.20;1.10;;;26.50;20.30;;;;;;5054296;28;20402;-74
2022/09/02 10:51:18;;;;;;;1.20;1.20;;;26.40;22.40;;;;;;5053991;28;20410;-75
2022/09/02 10:54:12;;;;;;;1.20;1.10;;;27.00;21.30;;;;;;5053381;28;20417;-74
2022/09/02 10:57:03;;;;;;;1.20;1.17;;;27.10;21.40;;;;;;5053598;28;20980;-75
2022/09/02 10:59:50;;;;;;;1.20;1.10;;;27.30;21.90;;;;;;5051319;28;20426;-75
2022/09/02 11:02:38;;;;;;;1.20;1.00;;;27.80;19.90;;;;;;5053542;28;20406;-76
2022/09/02 11:05:26;;;;;;;1.20;1.03;;;28.50;19.70;;;;;;5053132;28;20422;-74
2022/09/02 11:07:57;;;;;;;1.20;1.00;;;29.00;18.50;;;;;;5054017;28;20402;-75
2022/09/02 11:10:31;;;;;;;1.20;1.00;;;29.40;17.80;;;;;;5053955;28;20398;-75
2022/09/02 11:13:05;;;;;;;1.20;1.10;;;30.10;17.80;;;;;;5053813;28;20398;-76
2022/09/02 11:15:43;;;;;;;1.20;1.00;;;30.50;17.10;;;;;;5053171;28;20499;-76
2022/09/02 11:18:33;;;;;;;1.20;1.00;;;31.30;17.90;;;;;;5053534;28;20857;-76
2022/09/02 11:21:17;;;;;;;1.20;1.00;;;31.80;14.50;;;;;;5053438;28;20747;-75
2022/09/02 11:24:02;;;;;;;1.20;0.90;;;32.30;14.00;;;;;;5053463;28;20488;-76
2022/09/02 11:26:52;;;;;;;1.20;1.00;;;32.70;15.90;;;;;;5052814;28;20460;-76
2022/09/02 11:29:43;;;;;;;1.20;1.00;;;32.80;14.50;;;;;;5053504;28;20452;-76
2022/09/02 11:32:22;;;;;;;1.20;0.90;;;32.30;15.50;;;;;;5053005;28;20386;-75
2022/09/02 11:34:51;;;;;;;1.20;1.00;;;32.60;15.30;;;;;;5052785;28;20422;-75
2022/09/02 11:37:38;;;;;;;1.20;0.90;;;32.10;14.80;;;;;;5052768;28;20471;-75
2022/09/02 11:40:11;;;;;;;1.20;0.90;;;32.80;13.90;;;;;;5053592;28;20417;-75
2022/09/02 11:43:00;;;;;;;1.20;0.90;;;33.20;13.20;;;;;;5053093;28;20748;-76
2022/09/02 11:45:52;;;;;;;1.20;1.00;;;33.10;13.10;;;;;;5053096;28;20430;-76
2022/09/02 11:48:39;;;;;;;1.20;0.87;;;33.20;13.20;;;;;;5053174;28;20464;-76
2022/09/02 11:51:25;;;;;;;1.20;0.80;;;33.50;13.30;;;;;;5052837;28;20418;-75
2022/09/02 11:53:52;;;;;;;1.20;1.00;;;34.30;11.90;;;;;;5041695;28;20414;-75
2022/09/02 11:56:27;;;;;;;1.20;0.87;;;34.30;12.50;;;;;;5052616;28;20466;-75
2022/09/02 11:58:53;;;;;;;1.20;0.90;;;34.60;10.70;;;;;;5052967;28;20417;-76
2022/09/02 12:01:26;;;;;;;1.20;0.90;;;34.90;11.10;;;;;;5052631;28;20433;-76
2022/09/02 12:04:10;;;;;;;1.20;0.80;;;35.40;10.70;;;;;;5052974;28;20928;-76
2022/09/02 12:06:36;;;;;;;1.20;0.90;;;35.90;10.20;;;;;;5053115;28;20421;-76
2022/09/02 12:09:06;;;;;;;1.20;0.90;;;36.00;10.70;;;;;;5052697;28;20431;-76
2022/09/02 12:11:47;;;;;;;1.20;0.80;;;35.20;9.90;;;;;;5052685;28;20186;-76
2022/09/02 12:14:22;;;;;;;1.20;0.90;;;36.00;9.10;;;;;;5052953;28;20465;-76
2022/09/02 12:17:03;;;;;;;1.20;0.90;;;36.40;8.20;;;;;;5052959;28;20456;-76
2022/09/02 12:19:41;;;;;;;1.20;0.80;;;36.80;9.40;;;;;;5052478;28;20421;-76
2022/09/02 12:22:15;;;;;;;1.20;0.80;;;36.30;8.00;;;;;;5052309;28;20417;-76
2022/09/02 12:24:52;;;;;;;1.20;0.80;;;35.30;10.20;;;;;;5052545;28;20406;-76
2022/09/02 12:27:24;;;;;;;1.20;0.90;;;35.30;10.30;;;;;;5052280;28;20913;-76
2022/09/02 12:29:51;;;;;;;1.20;0.90;;;34.80;9.80;;;;;;5052942;28;20429;-75
2022/09/02 12:33:03;;;;;;;1.20;0.90;;;35.00;9.80;;;;;;5051919;28;20411;-76
2022/09/02 12:35:50;;;;;;;1.20;0.90;;;34.30;10.20;;;;;;4990270;28;20574;-75
2022/09/02 12:38:42;;;;;;;1.20;0.90;;;33.60;10.80;;;;;;4990300;28;20433;-74
2022/09/02 12:41:16;;;;;;;1.20;0.90;;;33.30;11.70;;;;;;4986629;28;20456;-75
2022/09/02 12:43:51;;;;;;;1.20;0.90;;;32.80;12.70;;;;;;4990315;28;20412;-74
2022/09/02 12:46:51;;;;;;;1.20;1.00;;;33.00;12.20;;;;;;4990408;28;20436;-75
2022/09/02 12:49:39;;;;;;;1.20;0.90;;;33.00;11.60;;;;;;4956743;28;20468;-75
2022/09/02 12:52:13;;;;;;;1.20;1.00;;;32.30;13.80;;;;;;4990093;28;20441;-74
2022/09/02 12:54:47;;;;;;;1.20;0.90;;;31.90;14.00;;;;;;4990336;28;20400;-75
2022/09/02 12:57:17;;;;;;;1.20;1.00;;;31.50;13.40;;;;;;4989947;28;20873;-75
2022/09/02 12:59:45;;;;;;;1.20;0.90;;;31.10;15.90;;;;;;4990107;28;20429;-75
2022/09/02 13:02:20;;;;;;;1.20;0.97;;;31.10;15.00;;;;;;4989739;28;20462;-75
2022/09/02 13:05:09;;;;;;;1.20;1.00;;;30.60;13.60;;;;;;4990529;28;20396;-75
2022/09/02 13:08:02;;;;;;;1.20;1.00;;;28.90;15.80;;;;;;4978486;28;20428;-74
2022/09/02 13:10:58;;;;;;;1.20;1.00;;;29.60;16.50;;;;;;5050834;28;20414;-75